createdAt,value
2023-03-29T00:02:40.320Z,9.20
2023-03-29T00:05:35.290Z,7.10
2023-03-29T00:08:25.163Z,7.10
2023-03-29T00:11:00.860Z,10.10
2023-03-29T00:13:49.191Z,11.40
2023-03-29T00:16:24.581Z,8.70
2023-03-29T00:19:13.164Z,9.00
2023-03-29T00:21:54.339Z,8.00
2023-03-29T00:24:35.155Z,10.10
2023-03-29T00:27:16.689Z,9.20
2023-03-29T00:29:58.141Z,8.70
2023-03-29T00:32:47.230Z,8.80
2023-03-29T00:35:21.835Z,11.20
2023-03-29T00:38:10.236Z,13.90
2023-03-29T00:41:05.311Z,8.80
2023-03-29T00:44:01.134Z,9.50
2023-03-29T00:46:37.352Z,11.20
2023-03-29T00:49:25.156Z,8.50
2023-03-29T00:52:06.343Z,10.10
2023-03-29T00:54:50.175Z,10.70
2023-03-29T00:57:40.158Z,11.20
2023-03-29T01:00:20.998Z,17.70
2023-03-29T01:03:11.238Z,17.20
2023-03-29T01:06:00.155Z,9.20
2023-03-29T01:08:58.146Z,10.90
2023-03-29T01:11:36.494Z,11.80
2023-03-29T01:14:37.133Z,15.60
2023-03-29T01:17:13.154Z,20.20
2023-03-29T01:20:07.137Z,15.90
2023-03-29T01:22:48.317Z,18.30
2023-03-29T01:25:46.187Z,16.50
2023-03-29T01:28:36.141Z,13.70
2023-03-29T01:31:29.182Z,12.30
2023-03-29T01:34:27.137Z,13.00
2023-03-29T01:37:22.199Z,13.80
2023-03-29T01:39:58.300Z,8.30
2023-03-29T01:43:08.126Z,7.00
2023-03-29T01:46:02.174Z,9.40
2023-03-29T01:49:01.182Z,9.30
2023-03-29T01:52:00.186Z,14.30
2023-03-29T01:54:47.140Z,11.20
2023-03-29T01:57:30.009Z,10.20
2023-03-29T02:00:18.136Z,8.70
2023-03-29T02:03:01.405Z,11.70
2023-03-29T02:05:45.217Z,8.20
2023-03-29T02:08:27.317Z,8.30
2023-03-29T02:11:16.154Z,7.90
2023-03-29T02:13:57.353Z,5.90
2023-03-29T02:16:43.132Z,7.40
2023-03-29T02:19:32.124Z,7.00
2023-03-29T02:22:10.436Z,5.60
2023-03-29T02:24:59.360Z,7.40
2023-03-29T02:27:41.161Z,7.60
2023-03-29T02:30:24.268Z,7.10
2023-03-29T02:33:13.116Z,6.80
2023-03-29T02:36:31.118Z,6.90
2023-03-29T02:39:06.350Z,6.80
2023-03-29T02:41:57.126Z,9.90
2023-03-29T02:44:33.904Z,7.70
2023-03-29T02:47:39.198Z,11.10
2023-03-29T02:50:13.687Z,8.80
2023-03-29T02:53:08.124Z,9.90
2023-03-29T02:55:42.712Z,6.90
2023-03-29T03:01:14.100Z,5.70
2023-03-29T03:04:02.174Z,6.70
2023-03-29T03:06:39.411Z,7.70
2023-03-29T03:09:27.118Z,6.90
2023-03-29T03:12:01.633Z,5.80
2023-03-29T03:17:31.300Z,5.60
2023-03-29T03:20:17.236Z,5.90
2023-03-29T03:23:05.192Z,7.20
2023-03-29T03:25:41.268Z,5.50
2023-03-29T03:28:31.136Z,5.40
2023-03-29T03:31:13.140Z,8.20
2023-03-29T03:34:08.092Z,9.90
2023-03-29T03:36:56.105Z,7.40
2023-03-29T03:39:31.674Z,7.40
2023-03-29T03:42:19.130Z,6.30
2023-03-29T03:44:55.214Z,7.70
2023-03-29T03:47:44.130Z,6.00
2023-03-29T03:50:26.138Z,5.10
2023-03-29T03:53:21.111Z,8.90
2023-03-29T03:56:15.119Z,7.40
2023-03-29T03:58:50.223Z,7.70
2023-03-29T04:01:38.193Z,7.40
2023-03-29T04:04:13.335Z,8.80
2023-03-29T04:07:01.076Z,7.00
2023-03-29T04:09:46.105Z,10.30
2023-03-29T04:12:41.085Z,8.00
2023-03-29T04:15:29.126Z,9.80
2023-03-29T04:18:14.168Z,9.60
2023-03-29T04:21:09.113Z,9.60
2023-03-29T04:23:57.091Z,10.00
2023-03-29T04:26:32.205Z,9.10
2023-03-29T04:29:20.080Z,9.50
2023-03-29T04:31:54.216Z,9.30
2023-03-29T04:37:22.257Z,7.90
2023-03-29T04:40:16.105Z,7.40
2023-03-29T04:42:51.880Z,8.60
2023-03-29T04:45:40.128Z,10.20
2023-03-29T04:48:15.805Z,10.80
2023-03-29T04:51:04.206Z,7.80
2023-03-29T04:53:39.227Z,9.70
2023-03-29T04:56:27.083Z,10.20
2023-03-29T04:59:09.194Z,11.70
2023-03-29T05:01:57.155Z,9.50
2023-03-29T05:04:33.360Z,12.90
2023-03-29T05:07:22.099Z,16.00
2023-03-29T05:09:57.254Z,13.20
2023-03-29T05:12:45.089Z,12.10
2023-03-29T05:15:27.095Z,10.60
2023-03-29T05:18:15.080Z,11.50
2023-03-29T05:20:50.223Z,11.00
2023-03-29T05:23:38.080Z,14.10
2023-03-29T05:26:22.099Z,13.60
2023-03-29T05:29:17.094Z,12.30
2023-03-29T05:32:06.103Z,13.90
2023-03-29T05:34:41.296Z,11.90
2023-03-29T05:37:29.102Z,11.20
2023-03-29T05:40:14.169Z,10.20
2023-03-29T05:43:10.112Z,9.80
2023-03-29T05:46:03.202Z,10.70
2023-03-29T05:48:45.148Z,12.50
2023-03-29T05:51:40.157Z,8.00
2023-03-29T05:54:28.083Z,9.90
2023-03-29T05:57:09.314Z,9.10
2023-03-29T05:59:51.085Z,11.90
2023-03-29T06:02:40.204Z,10.90
2023-03-29T06:05:29.078Z,11.60
2023-03-29T06:08:18.060Z,10.10
2023-03-29T06:10:52.210Z,10.80
2023-03-29T06:13:41.082Z,13.90
2023-03-29T06:16:17.239Z,14.90
2023-03-29T06:19:05.076Z,13.10
2023-03-29T06:21:47.091Z,12.70
2023-03-29T06:24:42.097Z,14.10
2023-03-29T06:27:37.069Z,12.20
2023-03-29T06:30:26.083Z,15.20
2023-03-29T06:33:08.084Z,13.70
2023-03-29T06:36:03.080Z,14.80
2023-03-29T06:38:53.099Z,14.90
2023-03-29T06:41:28.312Z,15.60
2023-03-29T06:44:17.092Z,12.30
2023-03-29T06:46:52.239Z,14.90
2023-03-29T06:49:40.054Z,15.70
2023-03-29T06:52:15.994Z,14.60
2023-03-29T06:55:04.070Z,12.60
2023-03-29T06:57:46.247Z,10.80
2023-03-29T07:00:35.059Z,11.10
2023-03-29T07:03:30.095Z,12.30
2023-03-29T07:06:27.054Z,14.00
2023-03-29T07:09:08.456Z,10.50
2023-03-29T07:11:57.060Z,11.60
2023-03-29T07:14:38.048Z,12.40
2023-03-29T07:17:26.104Z,13.50
2023-03-29T07:20:00.766Z,9.90
2023-03-29T07:22:49.064Z,13.10
2023-03-29T07:25:32.052Z,10.00
2023-03-29T07:28:20.069Z,12.90
2023-03-29T07:30:56.155Z,10.20
2023-03-29T07:33:45.213Z,11.60
2023-03-29T07:36:20.621Z,11.80
2023-03-29T07:39:09.058Z,11.70
2023-03-29T07:41:50.042Z,10.90
2023-03-29T07:44:31.219Z,9.90
2023-03-29T07:47:13.052Z,8.80
2023-03-29T07:49:54.337Z,8.90
2023-03-29T07:52:37.056Z,9.00
2023-03-29T07:55:20.311Z,10.30
2023-03-29T07:58:08.520Z,13.10
2023-03-29T08:00:44.365Z,8.60
2023-03-29T08:03:32.149Z,10.50
2023-03-29T08:06:10.212Z,8.10
2023-03-29T08:08:58.065Z,10.60
2023-03-29T08:11:40.041Z,11.80
2023-03-29T08:14:36.174Z,10.60
2023-03-29T08:17:24.135Z,8.20
2023-03-29T08:19:59.405Z,9.10
2023-03-29T08:22:47.513Z,9.50
2023-03-29T08:25:23.213Z,8.50
2023-03-29T08:28:12.066Z,10.20
2023-03-29T08:30:49.100Z,9.90
2023-03-29T08:33:37.048Z,8.60
2023-03-29T08:36:12.216Z,9.20
2023-03-29T08:39:00.174Z,7.80
2023-03-29T08:41:55.192Z,8.70
2023-03-29T08:45:01.459Z,6.80
2023-03-29T08:48:02.568Z,8.70
2023-03-29T08:50:49.266Z,6.00
2023-03-29T08:53:42.011Z,7.60
2023-03-29T08:56:34.257Z,9.50
2023-03-29T08:59:40.051Z,7.80
2023-03-29T09:02:20.686Z,6.10
2023-03-29T09:05:12.040Z,6.50
2023-03-29T09:08:01.049Z,6.50
2023-03-29T09:10:44.240Z,7.70
2023-03-29T09:13:43.122Z,2.70
2023-03-29T09:16:46.228Z,3.00
2023-03-29T09:19:53.047Z,2.70
2023-03-29T09:22:56.030Z,3.50
2023-03-29T09:25:56.274Z,4.00
2023-03-29T09:29:09.683Z,6.00
2023-03-29T09:31:58.076Z,14.70
2023-03-29T09:34:48.052Z,15.60
2023-03-29T09:37:51.032Z,3.30
2023-03-29T09:40:48.034Z,4.00
2023-03-29T09:43:25.179Z,3.60
2023-03-29T09:46:27.044Z,2.20
2023-03-29T09:49:03.176Z,2.30
2023-03-29T09:51:52.026Z,3.70
2023-03-29T09:54:27.174Z,5.50
2023-03-29T09:57:24.094Z,4.30
2023-03-29T09:59:59.710Z,9.70
2023-03-29T10:02:49.054Z,2.10
2023-03-29T10:05:25.206Z,2.90
2023-03-29T10:08:37.132Z,3.10
2023-03-29T10:11:24.147Z,3.50
2023-03-29T10:14:26.029Z,2.20
2023-03-29T10:17:04.251Z,2.50
2023-03-29T10:19:59.884Z,4.00
2023-03-29T10:22:42.375Z,15.20
2023-03-29T10:28:21.301Z,3.40
2023-03-29T10:31:10.089Z,3.80
2023-03-29T10:33:45.149Z,4.00
2023-03-29T10:36:34.034Z,3.40
2023-03-29T10:39:11.254Z,4.50
2023-03-29T10:42:00.048Z,5.70
2023-03-29T10:44:38.829Z,4.80
2023-03-29T10:47:28.035Z,4.30
2023-03-29T10:50:04.845Z,5.70
2023-03-29T10:52:53.022Z,4.00
2023-03-29T10:55:29.158Z,4.20
2023-03-29T10:58:23.046Z,3.50
2023-03-29T11:01:05.630Z,5.30
2023-03-29T11:04:15.233Z,4.00
2023-03-29T11:07:21.135Z,4.60
2023-03-29T11:10:25.789Z,4.40
2023-03-29T11:16:15.364Z,5.00
2023-03-29T11:19:10.239Z,5.30
2023-03-29T11:22:30.180Z,4.10
2023-03-29T11:25:24.025Z,5.40
2023-03-29T11:28:18.241Z,5.50
2023-03-29T11:31:18.136Z,5.40
2023-03-29T11:34:17.799Z,7.40
2023-03-29T11:37:26.029Z,6.60
2023-03-29T11:40:23.200Z,7.40
2023-03-29T11:43:58.025Z,4.50
2023-03-29T11:46:46.041Z,5.50
2023-03-29T11:49:42.012Z,4.10
2023-03-29T11:52:40.045Z,7.10
2023-03-29T11:55:53.018Z,6.20
2023-03-29T11:58:48.021Z,5.40
2023-03-29T12:01:37.755Z,5.90
2023-03-29T12:04:38.256Z,5.70
2023-03-29T12:07:24.141Z,4.40
2023-03-29T12:10:25.041Z,5.30
2023-03-29T12:13:14.993Z,5.30
2023-03-29T12:16:06.027Z,6.10
2023-03-29T12:18:47.148Z,4.80
2023-03-29T12:21:36.004Z,4.90
2023-03-29T12:24:12.180Z,4.20
2023-03-29T12:27:23.095Z,3.80
2023-03-29T12:30:34.325Z,7.50
2023-03-29T12:33:38.003Z,4.50
2023-03-29T12:36:38.039Z,4.20
2023-03-29T12:39:27.430Z,4.20
2023-03-29T12:42:29.026Z,7.60
2023-03-29T12:45:10.400Z,4.80
2023-03-29T12:47:59.113Z,4.50
2023-03-29T12:50:43.364Z,3.80
2023-03-29T12:53:33.988Z,3.90
2023-03-29T12:56:12.854Z,4.10
2023-03-29T12:59:14.014Z,3.40
2023-03-29T13:02:10.796Z,3.60
2023-03-29T13:05:04.084Z,3.30
2023-03-29T13:07:52.887Z,5.50
2023-03-29T13:10:47.013Z,3.10
2023-03-29T13:13:43.999Z,4.00
2023-03-29T13:16:20.247Z,3.70
2023-03-29T13:19:22.035Z,4.10
2023-03-29T13:21:59.544Z,3.90
2023-03-29T13:24:54.042Z,4.90
2023-03-29T13:27:46.871Z,4.50
2023-03-29T13:31:03.273Z,3.10
2023-03-29T13:33:59.872Z,3.40
2023-03-29T13:37:05.312Z,4.60
2023-03-29T13:39:50.261Z,3.90
2023-03-29T13:42:48.086Z,3.70
2023-03-29T13:45:34.008Z,3.50
2023-03-29T13:51:18.192Z,4.90
2023-03-29T13:54:15.231Z,4.00
2023-03-29T13:56:59.562Z,3.30
2023-03-29T13:59:58.050Z,3.60
2023-03-29T14:02:49.550Z,4.40
2023-03-29T14:06:01.293Z,5.10
2023-03-29T14:08:50.039Z,3.40
2023-03-29T14:11:43.017Z,4.30
2023-03-29T14:14:48.378Z,4.20
2023-03-29T14:17:46.010Z,3.30
2023-03-29T14:20:21.200Z,3.90
2023-03-29T14:23:16.521Z,3.60
2023-03-29T14:25:58.026Z,3.20
2023-03-29T14:28:53.022Z,3.30
2023-03-29T14:31:40.047Z,2.60
2023-03-29T14:34:23.208Z,2.90
2023-03-29T14:37:11.082Z,3.50
2023-03-29T14:39:45.966Z,3.50
2023-03-29T14:42:38.084Z,3.00
2023-03-29T14:45:15.149Z,3.30
2023-03-29T14:48:05.045Z,3.00
2023-03-29T14:51:00.021Z,2.40
2023-03-29T14:53:48.069Z,3.60
2023-03-29T14:56:25.642Z,2.90
2023-03-29T14:59:30.072Z,2.70
2023-03-29T15:02:05.150Z,2.90
2023-03-29T15:05:02.047Z,3.60
2023-03-29T15:07:40.075Z,3.50
2023-03-29T15:10:28.135Z,2.90
2023-03-29T15:13:03.703Z,2.40
2023-03-29T15:15:53.085Z,2.90
2023-03-29T15:19:03.024Z,2.50
2023-03-29T15:21:52.007Z,3.60
2023-03-29T15:24:44.017Z,3.80
2023-03-29T15:27:39.016Z,3.00
2023-03-29T15:30:38.043Z,4.10
2023-03-29T15:33:26.300Z,3.90
2023-03-29T15:36:16.095Z,2.40
2023-03-29T15:38:57.148Z,2.80
2023-03-29T15:41:38.006Z,2.00
2023-03-29T15:44:30.029Z,2.80
2023-03-29T15:47:10.386Z,2.50
2023-03-29T15:49:59.998Z,3.10
2023-03-29T15:52:34.715Z,3.90
2023-03-29T15:55:23.317Z,3.90
2023-03-29T15:57:58.505Z,4.60
2023-03-29T16:00:47.054Z,4.80
2023-03-29T16:03:29.222Z,4.70
2023-03-29T16:06:11.332Z,5.70
2023-03-29T16:08:59.044Z,5.20
2023-03-29T16:11:42.545Z,5.90
2023-03-29T16:14:32.774Z,7.00
2023-03-29T16:17:19.846Z,9.00
2023-03-29T16:20:02.028Z,9.60
2023-03-29T16:22:51.019Z,7.60
2023-03-29T16:25:32.044Z,6.00
2023-03-29T16:28:15.379Z,9.90
2023-03-29T16:30:57.015Z,11.90
2023-03-29T16:33:38.192Z,42.10
2023-03-29T16:36:19.046Z,17.50
2023-03-29T16:39:00.208Z,9.40
2023-03-29T16:41:41.097Z,8.40
2023-03-29T16:44:26.583Z,7.80
2023-03-29T16:47:08.365Z,12.60
2023-03-29T16:49:49.207Z,6.30
2023-03-29T16:52:32.048Z,11.40
2023-03-29T16:55:26.007Z,10.60
2023-03-29T16:58:00.455Z,13.90
2023-03-29T17:00:48.997Z,15.70
2023-03-29T17:03:24.163Z,11.70
2023-03-29T17:06:12.032Z,14.30
2023-03-29T17:09:07.007Z,10.30
2023-03-29T17:11:55.003Z,7.30
2023-03-29T17:14:36.997Z,10.60
2023-03-29T17:17:32.052Z,11.70
2023-03-29T17:20:20.161Z,12.80
2023-03-29T17:22:56.235Z,19.70
2023-03-29T17:25:44.001Z,18.50
2023-03-29T17:28:19.145Z,21.90
2023-03-29T17:31:14.017Z,25.20
2023-03-29T17:33:52.267Z,21.30
2023-03-29T17:36:40.005Z,27.10
2023-03-29T17:39:15.587Z,31.30
2023-03-29T17:42:04.006Z,25.60
2023-03-29T17:44:39.130Z,21.70
2023-03-29T17:47:27.024Z,19.00
2023-03-29T17:50:02.135Z,22.20
2023-03-29T17:52:49.992Z,18.40
2023-03-29T17:55:25.258Z,22.40
2023-03-29T17:58:13.004Z,25.60
2023-03-29T18:00:55.198Z,21.30
2023-03-29T18:03:50.225Z,23.20
2023-03-29T18:06:45.005Z,23.20
2023-03-29T18:09:40.621Z,13.90
2023-03-29T18:12:23.013Z,15.00
2023-03-29T18:15:04.372Z,18.20
2023-03-29T18:17:50.007Z,12.30
2023-03-29T18:20:47.098Z,12.20
2023-03-29T18:23:35.985Z,17.60
2023-03-29T18:26:11.163Z,14.50
2023-03-29T18:28:59.259Z,11.00
2023-03-29T18:31:35.391Z,16.80
2023-03-29T18:34:23.209Z,11.00
2023-03-29T18:36:58.297Z,13.60
2023-03-29T18:39:48.055Z,16.10
2023-03-29T18:42:30.015Z,15.40
2023-03-29T18:45:11.992Z,14.00
2023-03-29T18:48:00.189Z,13.60
2023-03-29T18:50:58.120Z,14.70
2023-03-29T18:53:48.066Z,13.80
2023-03-29T18:56:23.206Z,14.60
2023-03-29T18:59:13.003Z,14.00
2023-03-29T19:01:48.509Z,14.60
2023-03-29T19:04:44.232Z,14.60
2023-03-29T19:07:39.051Z,12.70
2023-03-29T19:10:33.983Z,10.90
2023-03-29T19:13:22.019Z,16.10
2023-03-29T19:15:59.260Z,14.20
2023-03-29T19:18:48.000Z,12.50
2023-03-29T19:21:30.005Z,13.30
2023-03-29T19:24:25.006Z,13.30
2023-03-29T19:27:13.558Z,13.60
2023-03-29T19:29:57.655Z,17.80
2023-03-29T19:32:46.052Z,19.90
2023-03-29T19:35:21.525Z,13.80
2023-03-29T19:38:08.998Z,14.00
2023-03-29T19:40:45.224Z,14.80
2023-03-29T19:43:33.978Z,15.20
2023-03-29T19:46:16.520Z,15.40
2023-03-29T19:49:05.993Z,12.80
2023-03-29T19:51:41.280Z,14.40
2023-03-29T19:54:29.192Z,13.90
2023-03-29T19:57:14.039Z,11.60
2023-03-29T20:00:08.986Z,11.50
2023-03-29T20:02:57.064Z,9.50
2023-03-29T20:05:32.174Z,11.70
2023-03-29T20:08:19.962Z,12.50
2023-03-29T20:10:54.115Z,14.70
2023-03-29T20:13:42.061Z,12.80
2023-03-29T20:16:24.586Z,14.20
2023-03-29T20:19:14.221Z,14.80
2023-03-29T20:21:50.884Z,13.80
2023-03-29T20:24:38.977Z,14.10
2023-03-29T20:27:15.983Z,14.40
2023-03-29T20:30:04.048Z,13.50
2023-03-29T20:32:39.150Z,11.70
2023-03-29T20:35:26.990Z,16.90
2023-03-29T20:38:09.138Z,10.70
2023-03-29T20:40:50.988Z,13.70
2023-03-29T20:43:37.763Z,13.80
2023-03-29T20:46:26.185Z,7.10
2023-03-29T20:49:09.100Z,14.10
2023-03-29T20:51:51.030Z,13.40
2023-03-29T20:54:40.069Z,12.90
2023-03-29T20:57:17.549Z,12.80
2023-03-29T21:00:06.018Z,13.40
2023-03-29T21:02:40.749Z,12.90
2023-03-29T21:05:28.968Z,16.00
2023-03-29T21:08:04.478Z,13.10
2023-03-29T21:10:52.038Z,14.10
2023-03-29T21:13:35.758Z,14.70
2023-03-29T21:16:25.944Z,14.10
2023-03-29T21:19:00.743Z,14.70
2023-03-29T21:21:50.061Z,18.20
2023-03-29T21:24:24.481Z,15.90
2023-03-29T21:27:12.981Z,15.00
2023-03-29T21:29:48.273Z,14.10
2023-03-29T21:32:35.979Z,14.30
2023-03-29T21:35:11.322Z,17.20
2023-03-29T21:37:58.960Z,13.00
2023-03-29T21:40:36.234Z,12.40
2023-03-29T21:43:23.966Z,17.80
2023-03-29T21:46:04.971Z,15.60
2023-03-29T21:48:46.101Z,8.00
2023-03-29T21:51:26.982Z,9.40
2023-03-29T21:54:08.195Z,16.00
2023-03-29T21:56:52.103Z,14.70
2023-03-29T21:59:33.119Z,16.60
2023-03-29T22:02:14.051Z,11.30
2023-03-29T22:04:55.127Z,12.60
2023-03-29T22:07:35.953Z,14.90
2023-03-29T22:10:22.903Z,13.70
2023-03-29T22:15:45.296Z,15.20
2023-03-29T22:18:28.078Z,16.80
2023-03-29T22:21:09.120Z,12.90
2023-03-29T22:23:51.971Z,14.30
2023-03-29T22:26:42.956Z,23.00
2023-03-29T22:29:17.439Z,23.20
2023-03-29T22:32:05.154Z,20.90
2023-03-29T22:34:40.611Z,21.30
2023-03-29T22:37:28.958Z,18.80
2023-03-29T22:40:04.546Z,19.90
2023-03-29T22:42:52.952Z,17.80
2023-03-29T22:45:27.611Z,19.90
2023-03-29T22:48:15.953Z,21.80
2023-03-29T22:50:50.685Z,17.70
2023-03-29T22:53:38.995Z,17.20
2023-03-29T22:56:14.517Z,17.30
2023-03-29T22:59:01.936Z,15.50
2023-03-29T23:01:57.149Z,14.60
2023-03-29T23:04:45.003Z,18.20
2023-03-29T23:07:27.003Z,14.40
2023-03-29T23:10:22.942Z,16.90
2023-03-29T23:13:16.961Z,13.90
2023-03-29T23:15:54.705Z,12.80
2023-03-29T23:18:43.926Z,16.40
2023-03-29T23:21:18.077Z,19.00
2023-03-29T23:24:06.025Z,16.40
2023-03-29T23:26:48.019Z,23.00
2023-03-29T23:29:44.973Z,16.60
2023-03-29T23:32:33.000Z,17.10
2023-03-29T23:35:14.953Z,13.60
2023-03-29T23:38:02.930Z,19.70
2023-03-29T23:40:38.140Z,16.30
2023-03-29T23:43:26.011Z,15.20
2023-03-29T23:46:08.111Z,13.40
2023-03-29T23:48:56.946Z,17.50
2023-03-29T23:51:39.328Z,14.10
2023-03-29T23:54:21.939Z,14.30
2023-03-29T23:57:03.106Z,14.10
2023-03-29T23:59:43.949Z,13.90
